Time;durP1;ratioP1;P1;durP2;ratioP2;P2;SDS_P1;SDS_P2;PMS_P1;PMS_P2;Temp;Humidity;BMP_temperature;BMP_pressure;BME280_temperature;BME280_humidity;BME280_pressure;Samples;Min_cycle;Max_cycle;Signal;HPM_P1;HPM_P2
2023/12/02 00:00:21;;;;;;;10.47;10.17;;;-1.10;99.90;;;;;;5186813;27;20256;-81
2023/12/02 00:02:52;;;;;;;10.57;10.27;;;-1.10;99.90;;;;;;5185613;27;20767;-81
2023/12/02 00:05:28;;;;;;;10.40;10.10;;;-1.00;99.90;;;;;;5186378;27;20234;-79
2023/12/02 00:07:55;;;;;;;10.33;10.03;;;-1.00;99.90;;;;;;5185305;27;20263;-80
2023/12/02 00:10:23;;;;;;;10.33;10.03;;;-1.00;99.90;;;;;;5186935;27;20298;-79
2023/12/02 00:12:52;;;;;;;10.30;10.00;;;-1.10;99.90;;;;;;5186465;27;20289;-79
2023/12/02 00:15:19;;;;;;;10.37;10.07;;;-1.10;99.90;;;;;;5186734;27;20229;-80
2023/12/02 00:17:47;;;;;;;10.43;10.13;;;-1.10;99.90;;;;;;5186419;27;20699;-80
2023/12/02 00:20:14;;;;;;;10.23;9.93;;;-1.10;99.90;;;;;;5185993;27;20227;-80
2023/12/02 00:22:42;;;;;;;10.67;10.37;;;-1.10;99.90;;;;;;5185753;27;20218;-79
2023/12/02 00:25:09;;;;;;;10.67;10.37;;;-1.20;99.90;;;;;;5185569;27;20223;-79
2023/12/02 00:27:37;;;;;;;10.47;10.17;;;-1.10;99.90;;;;;;5186500;27;20240;-79
2023/12/02 00:30:08;;;;;;;10.60;10.30;;;-1.10;99.90;;;;;;5185778;27;20226;-80
2023/12/02 00:32:35;;;;;;;10.37;10.07;;;-1.10;99.90;;;;;;5184809;27;20219;-80
2023/12/02 00:35:03;;;;;;;10.77;10.47;;;-1.10;99.90;;;;;;5184972;27;20230;-80
2023/12/02 00:37:31;;;;;;;10.50;10.20;;;-1.10;99.90;;;;;;5186429;27;20238;-80
2023/12/02 00:39:59;;;;;;;10.60;10.30;;;-1.00;99.90;;;;;;5186019;27;20226;-80
2023/12/02 00:42:26;;;;;;;10.30;10.00;;;-1.10;99.90;;;;;;5185646;27;20233;-80
2023/12/02 00:44:53;;;;;;;10.40;10.10;;;-1.10;99.90;;;;;;5187730;27;20231;-80
2023/12/02 00:47:22;;;;;;;10.00;9.70;;;-1.00;99.90;;;;;;5186263;27;20237;-81
2023/12/02 00:49:49;;;;;;;10.53;10.23;;;-1.10;99.90;;;;;;5188885;27;20237;-80
2023/12/02 00:52:17;;;;;;;10.57;10.27;;;-1.10;99.90;;;;;;5187375;27;20230;-80
2023/12/02 00:54:44;;;;;;;10.20;9.90;;;-1.10;99.90;;;;;;5187255;27;20271;-80
2023/12/02 00:57:12;;;;;;;10.33;10.03;;;-1.10;99.90;;;;;;5185371;27;20699;-80
2023/12/02 00:59:39;;;;;;;10.00;9.70;;;-1.10;99.90;;;;;;5185192;27;20234;-80
2023/12/02 01:02:09;;;;;;;10.30;10.00;;;-1.10;99.90;;;;;;5185367;27;20226;-80
2023/12/02 01:04:38;;;;;;;9.80;9.50;;;-1.10;99.90;;;;;;5184605;27;20217;-80
2023/12/02 01:07:05;;;;;;;9.60;9.30;;;-1.10;99.90;;;;;;5184428;27;20237;-80
2023/12/02 01:09:33;;;;;;;10.40;10.10;;;-1.00;99.90;;;;;;5185028;27;20686;-80
2023/12/02 01:12:03;;;;;;;9.87;9.57;;;-1.00;99.90;;;;;;5184216;27;20258;-80
2023/12/02 01:14:31;;;;;;;9.93;9.63;;;-1.00;99.90;;;;;;5186070;27;20309;-79
2023/12/02 01:16:58;;;;;;;10.00;9.70;;;-1.00;99.90;;;;;;5184944;27;20242;-79
2023/12/02 01:19:25;;;;;;;10.13;9.83;;;-1.00;99.90;;;;;;5184766;27;20237;-79
2023/12/02 01:21:54;;;;;;;10.10;9.80;;;-1.10;99.90;;;;;;5184724;27;20231;-79
2023/12/02 01:24:22;;;;;;;10.57;10.27;;;-1.10;99.90;;;;;;5185814;27;20236;-79
2023/12/02 01:26:49;;;;;;;10.50;10.20;;;-1.10;99.90;;;;;;5184140;27;20226;-81
2023/12/02 01:29:17;;;;;;;10.47;10.17;;;-1.10;99.90;;;;;;5186866;27;20232;-80
2023/12/02 01:31:44;;;;;;;10.37;10.07;;;-1.10;99.90;;;;;;5186336;27;20227;-80
2023/12/02 01:34:12;;;;;;;10.50;10.20;;;-1.00;99.90;;;;;;5185097;27;20218;-79
2023/12/02 01:36:39;;;;;;;10.30;10.00;;;-1.00;99.90;;;;;;5184149;27;20231;-80
2023/12/02 01:39:08;;;;;;;10.53;10.23;;;-1.00;99.90;;;;;;5184794;27;20234;-80
2023/12/02 01:41:36;;;;;;;10.30;10.00;;;-1.00;99.90;;;;;;5188005;27;20350;-79
2023/12/02 01:44:04;;;;;;;10.20;9.90;;;-1.00;99.90;;;;;;5188121;27;20226;-80
2023/12/02 01:46:31;;;;;;;10.40;10.10;;;-1.00;99.90;;;;;;5188140;27;20276;-79
2023/12/02 01:49:00;;;;;;;10.33;10.03;;;-1.00;99.90;;;;;;5188563;27;20244;-80
2023/12/02 01:51:29;;;;;;;10.43;10.13;;;-1.10;99.90;;;;;;5188048;27;20240;-79
2023/12/02 01:53:57;;;;;;;10.40;10.10;;;-1.10;99.90;;;;;;5187875;27;20230;-80
2023/12/02 01:56:26;;;;;;;10.50;10.20;;;-1.10;99.90;;;;;;5187400;27;20222;-79
2023/12/02 01:58:54;;;;;;;10.80;10.50;;;-1.10;99.90;;;;;;5187540;27;20237;-80
2023/12/02 02:01:21;;;;;;;10.53;10.23;;;-1.20;99.90;;;;;;5188047;27;20226;-79
2023/12/02 02:03:49;;;;;;;10.33;10.03;;;-1.10;99.90;;;;;;5187633;27;20226;-79
2023/12/02 02:06:17;;;;;;;10.63;10.33;;;-1.20;99.90;;;;;;5188250;27;20226;-79
2023/12/02 02:08:45;;;;;;;10.57;10.27;;;-1.10;99.90;;;;;;5187774;27;20235;-80
2023/12/02 02:11:12;;;;;;;10.40;10.10;;;-1.10;99.90;;;;;;5190969;27;20259;-79
2023/12/02 02:13:41;;;;;;;10.63;10.33;;;-1.20;99.90;;;;;;5192211;27;20218;-79
2023/12/02 02:16:09;;;;;;;10.80;10.50;;;-1.20;99.90;;;;;;5187939;27;20226;-79
2023/12/02 02:18:37;;;;;;;10.60;10.30;;;-1.10;99.90;;;;;;5185309;27;20233;-79
2023/12/02 02:21:05;;;;;;;10.60;10.30;;;-1.10;99.90;;;;;;5185878;27;20227;-79
2023/12/02 02:23:34;;;;;;;10.77;10.47;;;-1.10;99.90;;;;;;5186247;27;20233;-79
2023/12/02 02:26:01;;;;;;;10.77;10.47;;;-1.10;99.90;;;;;;5188638;27;20230;-80
2023/12/02 02:28:29;;;;;;;10.70;10.40;;;-1.10;99.90;;;;;;5185280;27;20230;-79
2023/12/02 02:30:57;;;;;;;10.10;9.80;;;-1.20;99.90;;;;;;5186098;27;20221;-79
2023/12/02 02:33:26;;;;;;;10.67;10.37;;;-1.10;99.90;;;;;;5185951;27;20230;-80
2023/12/02 02:35:53;;;;;;;10.60;10.30;;;-1.20;99.90;;;;;;5185674;27;20305;-80
2023/12/02 02:38:21;;;;;;;10.70;10.40;;;-1.20;99.90;;;;;;5186412;27;20240;-79
2023/12/02 02:40:50;;;;;;;10.50;10.20;;;-1.30;99.90;;;;;;5187932;27;20226;-79
2023/12/02 02:43:17;;;;;;;10.43;10.13;;;-1.20;99.90;;;;;;5185778;27;20215;-79
2023/12/02 02:45:44;;;;;;;10.80;10.50;;;-1.30;99.90;;;;;;5185723;27;20238;-79
2023/12/02 02:48:12;;;;;;;10.47;10.17;;;-1.30;99.90;;;;;;5185594;27;20238;-79
2023/12/02 02:50:39;;;;;;;10.50;10.20;;;-1.30;99.90;;;;;;5185346;27;20266;-79
2023/12/02 02:53:06;;;;;;;10.50;10.20;;;-1.30;99.90;;;;;;5186352;27;20215;-80
2023/12/02 02:55:34;;;;;;;10.63;10.33;;;-1.30;99.90;;;;;;5185758;27;20222;-79
2023/12/02 02:58:03;;;;;;;10.80;10.50;;;-1.30;99.90;;;;;;5187903;27;20250;-79
2023/12/02 03:00:34;;;;;;;10.77;10.47;;;-1.30;99.90;;;;;;5187265;27;20262;-79
2023/12/02 03:03:01;;;;;;;10.73;10.43;;;-1.30;99.90;;;;;;5186106;27;20230;-79
2023/12/02 03:05:29;;;;;;;10.70;10.40;;;-1.30;99.90;;;;;;5185782;27;20221;-79
2023/12/02 03:07:56;;;;;;;10.90;10.60;;;-1.30;99.90;;;;;;5210649;22;20238;-85
2023/12/02 03:10:24;;;;;;;10.60;10.30;;;-1.30;99.90;;;;;;5193568;27;20225;-85
2023/12/02 03:12:52;;;;;;;10.07;9.77;;;-1.30;99.90;;;;;;5192725;27;20227;-85
2023/12/02 03:15:24;;;;;;;10.23;9.93;;;-1.30;99.90;;;;;;5191535;27;20225;-85
2023/12/02 03:17:51;;;;;;;10.23;9.93;;;-1.40;99.90;;;;;;5192790;27;20243;-85
2023/12/02 03:20:20;;;;;;;10.50;10.20;;;-1.40;99.90;;;;;;5191139;27;20297;-85
2023/12/02 03:23:00;;;;;;;10.13;9.83;;;-1.40;99.90;;;;;;5191205;27;20240;-85
2023/12/02 03:25:27;;;;;;;10.57;10.27;;;-1.40;99.90;;;;;;5190415;27;20235;-85
2023/12/02 03:28:06;;;;;;;10.40;10.10;;;-1.40;99.90;;;;;;5191287;27;20232;-85
2023/12/02 03:33:31;;;;;;;10.40;10.10;;;-1.30;99.90;;;;;;5190838;27;20361;-86
2023/12/02 03:36:10;;;;;;;10.73;10.43;;;-1.40;99.90;;;;;;5191670;27;20229;-85
2023/12/02 03:38:40;;;;;;;10.57;10.27;;;-1.30;99.90;;;;;;5190808;27;20244;-85
2023/12/02 03:41:08;;;;;;;10.37;10.07;;;-1.30;99.90;;;;;;5191029;27;20218;-85
2023/12/02 03:43:37;;;;;;;10.73;10.43;;;-1.40;99.90;;;;;;5191031;27;20217;-85
2023/12/02 03:51:33;;;;;;;10.23;9.93;;;-1.40;99.90;;;;;;5190818;27;20226;-85
2023/12/02 03:54:01;;;;;;;10.40;10.10;;;-1.40;99.90;;;;;;5190995;27;20285;-85
2023/12/02 03:56:40;;;;;;;10.60;10.30;;;-1.40;99.90;;;;;;5191018;27;20232;-85
2023/12/02 03:59:09;;;;;;;10.40;10.10;;;-1.40;99.90;;;;;;5194705;27;20262;-85
2023/12/02 04:01:50;;;;;;;10.70;10.40;;;-1.40;99.90;;;;;;5192227;27;20225;-85
2023/12/02 04:04:18;;;;;;;10.40;10.10;;;-1.40;99.90;;;;;;5192588;27;20239;-84
2023/12/02 04:06:47;;;;;;;10.30;10.00;;;-1.30;99.90;;;;;;5193970;27;20285;-85
2023/12/02 04:09:17;;;;;;;10.07;9.77;;;-1.30;99.90;;;;;;5198029;27;20244;-85
2023/12/02 04:11:46;;;;;;;10.10;9.80;;;-1.30;99.90;;;;;;5193226;27;20258;-85
2023/12/02 04:14:16;;;;;;;10.50;10.20;;;-1.40;99.90;;;;;;5192759;27;20246;-85
2023/12/02 04:16:46;;;;;;;10.50;10.20;;;-1.40;99.90;;;;;;5191711;27;20248;-85
2023/12/02 04:19:14;;;;;;;10.40;10.10;;;-1.30;99.90;;;;;;5191393;27;20237;-84
2023/12/02 04:21:45;;;;;;;10.60;10.30;;;-1.30;99.90;;;;;;5190807;27;20310;-85
2023/12/02 04:24:13;;;;;;;10.60;10.30;;;-1.30;99.90;;;;;;5190749;27;20281;-85
2023/12/02 04:26:42;;;;;;;10.53;10.23;;;-1.30;99.90;;;;;;5190060;27;20228;-85
2023/12/02 04:29:21;;;;;;;10.30;10.00;;;-1.40;99.90;;;;;;5190510;27;20227;-85
2023/12/02 04:31:52;;;;;;;10.30;10.00;;;-1.40;99.90;;;;;;5190491;27;20226;-85
2023/12/02 04:34:19;;;;;;;10.30;10.00;;;-1.40;99.90;;;;;;5190555;27;20220;-85
2023/12/02 04:36:48;;;;;;;10.43;10.13;;;-1.40;99.90;;;;;;5190167;27;20241;-85
2023/12/02 04:39:28;;;;;;;10.10;9.80;;;-1.40;99.90;;;;;;5190649;27;20234;-85
2023/12/02 04:41:57;;;;;;;10.30;10.00;;;-1.40;99.90;;;;;;5196268;27;20276;-85
2023/12/02 04:44:25;;;;;;;10.57;10.27;;;-1.40;99.90;;;;;;5189367;27;20226;-83
2023/12/02 04:46:58;;;;;;;10.30;10.00;;;-1.40;99.90;;;;;;5189012;27;20268;-85
2023/12/02 04:49:25;;;;;;;10.50;10.20;;;-1.40;99.90;;;;;;5189656;27;20236;-85
2023/12/02 04:52:06;;;;;;;10.60;10.30;;;-1.40;99.90;;;;;;5190300;27;20210;-85
2023/12/02 04:54:34;;;;;;;10.33;10.03;;;-1.50;99.90;;;;;;5189828;27;20215;-85
2023/12/02 04:59:42;;;;;;;10.40;10.10;;;-1.50;99.90;;;;;;5189521;27;20233;-85
2023/12/02 05:02:14;;;;;;;10.30;10.00;;;-1.50;99.90;;;;;;5189569;27;20230;-85
2023/12/02 05:04:41;;;;;;;10.33;10.03;;;-1.50;99.90;;;;;;5190090;27;20317;-85
2023/12/02 05:07:10;;;;;;;10.20;9.90;;;-1.50;99.90;;;;;;5189209;27;20308;-83
2023/12/02 05:09:39;;;;;;;10.60;10.30;;;-1.50;99.90;;;;;;5189985;27;20290;-85
2023/12/02 05:12:09;;;;;;;10.17;9.87;;;-1.50;99.90;;;;;;5189654;27;20226;-85
2023/12/02 05:14:38;;;;;;;9.97;9.67;;;-1.50;99.90;;;;;;5189510;27;20229;-85
2023/12/02 05:17:18;;;;;;;10.10;9.80;;;-1.50;99.90;;;;;;5190292;27;20237;-85
2023/12/02 05:19:48;;;;;;;10.10;9.80;;;-1.50;99.90;;;;;;5191200;27;20237;-84
2023/12/02 05:25:12;;;;;;;10.33;10.03;;;-1.70;99.90;;;;;;5188900;27;20223;-85
2023/12/02 05:27:40;;;;;;;10.67;10.37;;;-1.70;99.90;;;;;;5189496;27;20234;-85
2023/12/02 05:30:12;;;;;;;10.60;10.30;;;-1.70;99.90;;;;;;5189455;27;20218;-85
2023/12/02 05:32:40;;;;;;;10.57;10.27;;;-1.70;99.90;;;;;;5189548;27;20352;-85
2023/12/02 05:35:12;;;;;;;10.67;10.37;;;-1.70;99.90;;;;;;5189050;27;20294;-85
2023/12/02 05:37:40;;;;;;;10.53;10.23;;;-1.70;99.90;;;;;;5189160;27;20259;-85
2023/12/02 05:40:11;;;;;;;10.40;10.10;;;-1.70;99.90;;;;;;5189232;27;20226;-85
2023/12/02 05:42:38;;;;;;;10.30;10.00;;;-1.70;99.90;;;;;;5189539;27;20235;-85
2023/12/02 05:45:07;;;;;;;10.10;9.80;;;-1.70;99.90;;;;;;5188966;27;20224;-85
2023/12/02 05:47:37;;;;;;;10.40;10.10;;;-1.70;99.90;;;;;;5188348;27;20233;-84
2023/12/02 05:50:06;;;;;;;10.80;10.50;;;-1.70;99.90;;;;;;5188465;27;20230;-85
2023/12/02 05:55:32;;;;;;;10.43;10.13;;;-1.70;99.90;;;;;;5189718;27;20231;-85
2023/12/02 05:58:01;;;;;;;10.10;9.80;;;-1.70;99.90;;;;;;5188574;27;20238;-85
2023/12/02 06:00:29;;;;;;;10.40;10.10;;;-1.70;99.90;;;;;;5188979;27;20231;-86
2023/12/02 06:03:08;;;;;;;10.53;10.23;;;-1.70;99.90;;;;;;5189221;27;20246;-85
2023/12/02 06:05:37;;;;;;;10.10;9.80;;;-1.70;99.90;;;;;;5189692;27;20229;-85
2023/12/02 06:11:03;;;;;;;10.40;10.10;;;-1.60;99.90;;;;;;5197374;27;20233;-85
2023/12/02 06:13:32;;;;;;;10.20;9.90;;;-1.70;99.90;;;;;;5172448;27;20223;-84
2023/12/02 06:16:11;;;;;;;10.47;10.17;;;-1.70;99.90;;;;;;5189962;27;20221;-85
2023/12/02 06:18:39;;;;;;;10.53;10.23;;;-1.70;99.90;;;;;;5189539;27;20242;-85
2023/12/02 06:21:09;;;;;;;10.27;9.97;;;-1.70;99.90;;;;;;5189756;27;20234;-85
2023/12/02 06:23:42;;;;;;;10.40;10.10;;;-1.70;99.90;;;;;;5188868;27;20316;-85
2023/12/02 06:26:09;;;;;;;10.27;9.97;;;-1.70;99.90;;;;;;5189384;27;20228;-85
2023/12/02 06:28:40;;;;;;;10.17;9.87;;;-1.70;99.90;;;;;;5192795;27;20239;-85
2023/12/02 06:31:26;;;;;;;10.67;10.37;;;-1.70;99.90;;;;;;5192199;27;20225;-85
2023/12/02 06:33:55;;;;;;;10.17;9.87;;;-1.70;99.90;;;;;;5194580;27;20216;-84
2023/12/02 06:36:23;;;;;;;10.63;10.33;;;-1.70;99.90;;;;;;5196441;27;20247;-85
2023/12/02 06:38:56;;;;;;;10.00;9.70;;;-1.70;99.90;;;;;;5191689;27;20229;-85
2023/12/02 06:41:23;;;;;;;10.20;9.90;;;-1.70;99.90;;;;;;5193434;27;20241;-85
2023/12/02 06:43:52;;;;;;;9.90;9.60;;;-1.70;99.90;;;;;;5193313;27;20249;-85
2023/12/02 06:46:24;;;;;;;10.30;10.00;;;-1.70;99.90;;;;;;5192938;27;20216;-85
2023/12/02 06:48:52;;;;;;;10.20;9.90;;;-1.70;99.90;;;;;;5191512;27;20238;-85
2023/12/02 06:51:31;;;;;;;10.73;10.43;;;-1.70;99.90;;;;;;5192856;27;20237;-85
2023/12/02 06:54:10;;;;;;;10.83;10.53;;;-1.70;99.90;;;;;;5193529;27;20238;-86
2023/12/02 06:56:39;;;;;;;10.90;10.60;;;-1.70;99.90;;;;;;5193183;27;20221;-85
2023/12/02 06:59:08;;;;;;;10.93;10.63;;;-1.70;99.90;;;;;;5193377;27;20292;-85
2023/12/02 07:01:48;;;;;;;10.87;10.57;;;-1.70;99.90;;;;;;5192950;27;20291;-85
2023/12/02 07:04:15;;;;;;;10.60;10.30;;;-1.70;99.90;;;;;;5192773;27;20219;-85
2023/12/02 07:06:53;;;;;;;10.90;10.60;;;-1.80;99.90;;;;;;5192340;27;20238;-84
2023/12/02 07:09:26;;;;;;;10.70;10.40;;;-1.80;99.90;;;;;;5198020;27;20234;-84
2023/12/02 07:11:53;;;;;;;10.70;10.40;;;-1.80;99.90;;;;;;5199382;27;20252;-84
2023/12/02 07:14:23;;;;;;;10.57;10.27;;;-1.70;99.90;;;;;;5193971;27;20228;-83
2023/12/02 07:16:51;;;;;;;10.57;10.27;;;-1.70;99.90;;;;;;5194428;27;20218;-84
2023/12/02 07:19:31;;;;;;;10.43;10.13;;;-1.80;99.90;;;;;;5193420;27;20235;-84
2023/12/02 07:21:59;;;;;;;10.80;10.50;;;-1.80;99.90;;;;;;5193886;27;20243;-84
2023/12/02 07:32:51;;;;;;;10.70;10.40;;;-1.70;99.90;;;;;;5192428;27;20242;-84
2023/12/02 07:35:19;;;;;;;10.37;10.07;;;-1.80;99.90;;;;;;5192374;27;20203;-84
2023/12/02 07:37:58;;;;;;;10.17;9.87;;;-1.80;99.90;;;;;;5191662;27;20249;-84
2023/12/02 07:40:29;;;;;;;10.60;10.30;;;-1.80;99.90;;;;;;5192846;27;20264;-85
2023/12/02 07:42:56;;;;;;;10.90;10.60;;;-1.80;99.90;;;;;;5192946;27;20230;-84
2023/12/02 07:45:25;;;;;;;10.73;10.43;;;-1.70;99.90;;;;;;5192428;27;20222;-84
2023/12/02 07:47:55;;;;;;;10.83;10.53;;;-1.80;99.90;;;;;;5195635;27;20230;-85
2023/12/02 07:50:24;;;;;;;11.03;10.73;;;-1.80;99.90;;;;;;5201894;27;20233;-84
2023/12/02 07:53:03;;;;;;;10.87;10.57;;;-1.80;99.90;;;;;;5189181;27;20256;-84
2023/12/02 07:58:21;;;;;;;10.80;10.50;;;-1.80;99.90;;;;;;5189299;27;20221;-84
2023/12/02 08:00:49;;;;;;;10.40;10.10;;;-1.80;99.90;;;;;;5191280;27;20232;-84
2023/12/02 08:03:18;;;;;;;10.60;10.30;;;-1.80;99.90;;;;;;5191035;27;20229;-84
2023/12/02 08:05:56;;;;;;;10.70;10.40;;;-1.80;99.90;;;;;;5190807;27;20233;-84
2023/12/02 08:08:25;;;;;;;10.57;10.27;;;-1.80;99.90;;;;;;5191677;27;20227;-84
2023/12/02 08:10:58;;;;;;;10.60;10.30;;;-1.70;99.90;;;;;;5202357;27;20224;-85
2023/12/02 08:13:27;;;;;;;10.80;10.50;;;-1.70;99.90;;;;;;5201977;27;20242;-85
2023/12/02 08:15:55;;;;;;;10.40;10.10;;;-1.70;99.90;;;;;;5192504;27;20333;-84
2023/12/02 08:18:23;;;;;;;10.87;10.57;;;-1.70;99.90;;;;;;5190768;27;20279;-84
2023/12/02 08:21:02;;;;;;;10.27;9.97;;;-1.60;99.90;;;;;;5191424;27;20243;-84
2023/12/02 08:23:31;;;;;;;10.27;9.97;;;-1.60;99.90;;;;;;5190955;27;20256;-85
2023/12/02 08:28:57;;;;;;;10.33;10.03;;;-1.50;99.90;;;;;;5197931;27;20224;-85
2023/12/02 08:31:25;;;;;;;10.43;10.13;;;-1.50;99.90;;;;;;5191060;27;20265;-84
2023/12/02 08:34:04;;;;;;;10.67;10.37;;;-1.60;99.90;;;;;;5191730;27;20241;-84
2023/12/02 08:36:33;;;;;;;10.33;10.03;;;-1.60;99.90;;;;;;5191009;27;20233;-84
2023/12/02 08:39:12;;;;;;;10.37;10.07;;;-1.50;99.90;;;;;;5191932;27;20241;-84
2023/12/02 08:44:28;;;;;;;10.23;9.93;;;-1.40;99.90;;;;;;5199149;27;20204;-85
2023/12/02 08:47:00;;;;;;;10.13;9.83;;;-1.60;99.90;;;;;;5194852;27;20270;-84
2023/12/02 08:49:28;;;;;;;10.47;10.17;;;-1.60;99.90;;;;;;5192133;27;20222;-84
2023/12/02 08:54:37;;;;;;;10.30;10.00;;;-1.70;99.90;;;;;;5191924;27;20247;-84
2023/12/02 09:00:10;;;;;;;10.43;10.13;;;-1.70;99.90;;;;;;5145348;27;20557;-84
2023/12/02 09:02:50;;;;;;;10.13;9.83;;;-1.60;99.90;;;;;;5125190;28;20233;-84
2023/12/02 09:05:20;;;;;;;10.20;9.90;;;-1.60;99.90;;;;;;5125378;28;20245;-84
2023/12/02 09:07:47;;;;;;;10.10;9.80;;;-1.70;99.90;;;;;;5139782;22;20223;-80
2023/12/02 09:10:14;;;;;;;10.47;10.17;;;-1.70;99.90;;;;;;5137329;27;20218;-79
2023/12/02 09:12:44;;;;;;;10.47;10.17;;;-1.60;99.90;;;;;;5136861;27;20236;-80
2023/12/02 09:15:45;;;;;;;10.17;9.87;;;-1.70;99.90;;;;;;5135564;27;20216;-80
2023/12/02 09:18:14;;;;;;;10.47;10.17;;;-1.60;99.90;;;;;;5120838;28;20218;-78
2023/12/02 09:20:49;;;;;;;10.50;10.20;;;-1.60;99.90;;;;;;5118863;28;20229;-78
2023/12/02 09:23:18;;;;;;;10.20;9.90;;;-1.60;99.90;;;;;;5121133;28;20313;-80
2023/12/02 09:25:51;;;;;;;10.10;9.80;;;-1.60;99.90;;;;;;5120410;28;20224;-80
2023/12/02 09:28:22;;;;;;;10.13;9.83;;;-1.60;99.90;;;;;;5121256;28;20242;-81
2023/12/02 09:30:57;;;;;;;9.90;9.60;;;-1.60;99.90;;;;;;5121026;28;20326;-81
2023/12/02 09:33:28;;;;;;;10.37;10.07;;;-1.60;99.90;;;;;;5121848;28;20241;-80
2023/12/02 09:35:59;;;;;;;10.17;9.87;;;-1.70;99.90;;;;;;5119789;28;20241;-78
2023/12/02 09:38:28;;;;;;;10.60;10.30;;;-1.70;99.90;;;;;;5120350;28;20233;-80
2023/12/02 09:41:29;;;;;;;10.40;10.10;;;-1.60;99.90;;;;;;5121366;28;20295;-80
2023/12/02 09:44:25;;;;;;;10.13;9.83;;;-1.60;99.90;;;;;;5120850;28;20260;-80
2023/12/02 09:47:05;;;;;;;10.60;10.30;;;-1.50;99.90;;;;;;5120234;28;20271;-80
2023/12/02 09:50:09;;;;;;;10.40;10.10;;;-1.60;99.90;;;;;;5120676;28;20294;-80
2023/12/02 09:53:00;;;;;;;10.70;10.40;;;-1.70;99.90;;;;;;5118241;28;20236;-80
2023/12/02 09:55:37;;;;;;;10.23;9.93;;;-1.60;99.90;;;;;;5120759;28;20275;-79
2023/12/02 09:58:21;;;;;;;10.70;10.40;;;-1.70;99.90;;;;;;5118305;28;20229;-78
2023/12/02 10:00:53;;;;;;;10.73;10.43;;;-1.70;99.90;;;;;;5118264;28;20225;-78
2023/12/02 10:03:39;;;;;;;10.33;10.03;;;-1.60;99.90;;;;;;5118485;28;20291;-80
2023/12/02 10:06:27;;;;;;;10.30;10.00;;;-1.70;99.90;;;;;;5117652;28;20233;-78
2023/12/02 10:09:02;;;;;;;10.70;10.40;;;-1.60;99.90;;;;;;5116736;28;20233;-78
2023/12/02 10:12:01;;;;;;;10.20;9.90;;;-1.50;99.90;;;;;;5104203;28;20249;-81
2023/12/02 10:14:34;;;;;;;10.33;10.03;;;-1.50;99.90;;;;;;5106960;28;20231;-79
2023/12/02 10:17:07;;;;;;;10.00;9.70;;;-1.50;99.90;;;;;;5106669;28;20330;-79
2023/12/02 10:19:42;;;;;;;10.20;9.90;;;-1.50;99.90;;;;;;5106318;28;20274;-80
2023/12/02 10:22:13;;;;;;;10.07;9.77;;;-1.50;99.90;;;;;;5106918;28;20283;-79
2023/12/02 10:24:52;;;;;;;10.17;9.87;;;-1.60;99.90;;;;;;5111012;28;20227;-79
2023/12/02 10:27:26;;;;;;;10.40;10.10;;;-1.60;99.90;;;;;;5107859;28;20225;-78
2023/12/02 10:30:09;;;;;;;10.17;9.87;;;-1.70;99.90;;;;;;5106570;28;20232;-79
2023/12/02 10:32:54;;;;;;;10.20;9.90;;;-1.70;99.90;;;;;;5107965;28;20234;-79
2023/12/02 10:35:31;;;;;;;10.00;9.70;;;-1.80;99.90;;;;;;5106874;28;20261;-79
2023/12/02 10:38:14;;;;;;;10.30;10.00;;;-1.80;99.90;;;;;;5106470;28;20237;-80
2023/12/02 10:40:49;;;;;;;10.03;9.73;;;-1.80;99.90;;;;;;5107341;28;20217;-79
2023/12/02 10:43:26;;;;;;;9.93;9.63;;;-1.80;99.90;;;;;;5106855;28;20248;-79
2023/12/02 10:45:54;;;;;;;9.90;9.60;;;-1.80;99.90;;;;;;5105993;28;20264;-79
2023/12/02 10:48:23;;;;;;;10.33;10.03;;;-1.70;99.90;;;;;;5106736;28;20247;-80
2023/12/02 10:50:53;;;;;;;10.07;9.77;;;-1.70;99.90;;;;;;5106489;28;20247;-79
2023/12/02 10:53:24;;;;;;;9.57;9.27;;;-1.60;99.90;;;;;;5106352;28;20230;-79
2023/12/02 10:55:56;;;;;;;9.70;9.40;;;-1.70;99.90;;;;;;5106481;28;20236;-80
2023/12/02 10:58:26;;;;;;;9.90;9.60;;;-1.70;99.90;;;;;;5105139;28;20248;-79
2023/12/02 11:01:05;;;;;;;9.40;9.10;;;-1.80;99.90;;;;;;5112770;28;20303;-80
2023/12/02 11:03:41;;;;;;;10.10;9.80;;;-1.90;99.90;;;;;;5111256;28;20220;-79
2023/12/02 11:06:19;;;;;;;10.10;9.80;;;-1.90;99.90;;;;;;5110605;28;20262;-79
2023/12/02 11:08:58;;;;;;;9.70;9.40;;;-1.90;99.90;;;;;;5116854;28;20268;-79
2023/12/02 11:11:43;;;;;;;10.00;9.70;;;-1.90;99.90;;;;;;5117808;28;20225;-80
2023/12/02 11:14:17;;;;;;;10.03;9.73;;;-1.90;99.90;;;;;;5110670;28;20221;-81
2023/12/02 11:17:06;;;;;;;10.57;10.27;;;-1.90;99.90;;;;;;5105759;28;20304;-80
2023/12/02 11:19:54;;;;;;;10.20;9.90;;;-1.80;99.90;;;;;;5105327;28;20234;-79
2023/12/02 11:22:52;;;;;;;10.17;9.87;;;-1.90;99.90;;;;;;5104475;28;20227;-80
2023/12/02 11:25:32;;;;;;;9.97;9.67;;;-1.80;99.90;;;;;;5105357;28;20226;-80
2023/12/02 11:28:06;;;;;;;9.80;9.50;;;-1.80;99.90;;;;;;5105381;28;20279;-81
2023/12/02 11:30:56;;;;;;;9.97;9.67;;;-1.90;99.90;;;;;;5105088;28;20296;-80
2023/12/02 11:33:42;;;;;;;9.83;9.53;;;-1.90;99.90;;;;;;5105365;28;20241;-80
2023/12/02 11:36:16;;;;;;;9.70;9.40;;;-1.90;99.90;;;;;;5104726;28;20714;-79
2023/12/02 11:39:03;;;;;;;10.00;9.70;;;-1.90;99.90;;;;;;5104794;28;20249;-80
2023/12/02 11:41:40;;;;;;;10.10;9.80;;;-1.90;99.90;;;;;;5105698;28;20233;-80
2023/12/02 11:44:18;;;;;;;10.20;9.90;;;-1.90;99.90;;;;;;5105190;28;20288;-80
2023/12/02 11:47:03;;;;;;;9.43;9.13;;;-1.80;99.90;;;;;;5105147;28;20331;-81
2023/12/02 11:49:39;;;;;;;9.60;9.30;;;-1.80;99.90;;;;;;5105216;28;20233;-80
2023/12/02 11:52:23;;;;;;;9.93;9.63;;;-1.80;99.90;;;;;;5106601;28;20229;-80
2023/12/02 11:55:08;;;;;;;10.03;9.73;;;-1.80;99.90;;;;;;5112234;28;20222;-80
2023/12/02 11:58:11;;;;;;;9.83;9.53;;;-1.70;99.90;;;;;;5106137;28;21060;-79
2023/12/02 12:00:53;;;;;;;9.73;9.43;;;-1.60;99.90;;;;;;5105880;28;20247;-80
2023/12/02 12:06:56;;;;;;;10.03;9.73;;;-1.70;99.90;;;;;;5103861;28;20256;-81
2023/12/02 12:09:37;;;;;;;9.80;9.50;;;-1.70;99.90;;;;;;5104077;28;20233;-80
2023/12/02 12:12:08;;;;;;;9.73;9.43;;;-1.70;99.90;;;;;;5106391;28;20238;-80
2023/12/02 12:14:38;;;;;;;9.33;9.03;;;-1.60;99.90;;;;;;5105476;28;20234;-80
2023/12/02 12:17:06;;;;;;;9.63;9.33;;;-1.60;99.90;;;;;;5105071;28;20230;-80
2023/12/02 12:19:34;;;;;;;9.70;9.40;;;-1.50;99.90;;;;;;5105775;28;20290;-80
2023/12/02 12:22:03;;;;;;;9.73;9.43;;;-1.50;99.90;;;;;;5106255;28;20241;-80
2023/12/02 12:24:30;;;;;;;9.53;9.23;;;-1.40;99.90;;;;;;5105363;28;20288;-80
2023/12/02 12:26:58;;;;;;;9.77;9.47;;;-1.40;99.90;;;;;;5104483;28;20268;-80
2023/12/02 12:29:26;;;;;;;9.50;9.20;;;-1.40;99.90;;;;;;5105733;28;20340;-79
2023/12/02 12:31:59;;;;;;;9.60;9.30;;;-1.40;99.90;;;;;;5105406;28;20262;-79
2023/12/02 12:34:28;;;;;;;9.53;9.23;;;-1.40;99.90;;;;;;5104573;28;20233;-80
2023/12/02 12:36:59;;;;;;;9.97;9.67;;;-1.50;99.90;;;;;;5105143;28;20228;-79
2023/12/02 12:39:27;;;;;;;9.87;9.57;;;-1.50;99.90;;;;;;5104300;28;20230;-80
2023/12/02 12:41:55;;;;;;;10.00;9.70;;;-1.50;99.90;;;;;;5104629;28;20237;-80
2023/12/02 12:44:23;;;;;;;9.90;9.60;;;-1.60;99.90;;;;;;5105012;28;20227;-80
2023/12/02 12:46:55;;;;;;;9.80;9.50;;;-1.60;99.90;;;;;;5106470;28;20240;-79
2023/12/02 12:49:26;;;;;;;9.90;9.60;;;-1.50;99.90;;;;;;5109778;28;20224;-80
2023/12/02 12:52:01;;;;;;;9.13;8.83;;;-1.50;99.90;;;;;;5106147;28;20287;-80
2023/12/02 12:54:31;;;;;;;9.63;9.33;;;-1.50;99.90;;;;;;5105171;28;20276;-79
2023/12/02 12:57:08;;;;;;;9.67;9.37;;;-1.60;99.90;;;;;;5104125;28;20226;-79
2023/12/02 12:59:36;;;;;;;9.70;9.40;;;-1.60;99.90;;;;;;5104286;28;20300;-79
2023/12/02 13:02:26;;;;;;;9.70;9.40;;;-1.60;99.90;;;;;;5103716;28;20283;-80
2023/12/02 13:05:00;;;;;;;9.80;9.50;;;-1.70;99.90;;;;;;5103101;28;20244;-79
2023/12/02 13:07:40;;;;;;;9.87;9.57;;;-1.80;99.90;;;;;;5103935;28;20285;-80
2023/12/02 13:10:09;;;;;;;9.70;9.40;;;-1.80;99.90;;;;;;5104927;28;20230;-80
2023/12/02 13:12:39;;;;;;;9.47;9.17;;;-1.80;99.90;;;;;;5103908;28;20221;-80
2023/12/02 13:15:12;;;;;;;9.57;9.27;;;-1.80;99.90;;;;;;5103469;28;20233;-79
2023/12/02 13:17:43;;;;;;;9.60;9.30;;;-1.80;99.90;;;;;;5103305;28;20249;-80
2023/12/02 13:20:10;;;;;;;10.00;9.70;;;-1.80;99.90;;;;;;5103594;28;20234;-80
2023/12/02 13:22:39;;;;;;;9.73;9.43;;;-1.80;99.90;;;;;;5103817;28;21025;-79
2023/12/02 13:25:20;;;;;;;9.97;9.67;;;-1.90;99.90;;;;;;5103050;28;20254;-79
2023/12/02 13:27:52;;;;;;;9.53;9.23;;;-2.00;99.90;;;;;;5103109;28;20240;-80
2023/12/02 13:30:23;;;;;;;10.17;9.87;;;-1.90;99.90;;;;;;5103281;28;20226;-80
2023/12/02 13:32:55;;;;;;;9.57;9.27;;;-1.80;99.90;;;;;;5101331;28;20229;-78
2023/12/02 13:35:28;;;;;;;9.33;9.03;;;-1.80;99.90;;;;;;5102951;28;20216;-78
2023/12/02 13:38:09;;;;;;;9.70;9.40;;;-1.80;99.90;;;;;;5104750;28;20231;-78
2023/12/02 13:40:43;;;;;;;9.70;9.40;;;-1.80;99.90;;;;;;5104197;28;20236;-78
2023/12/02 13:43:13;;;;;;;9.50;9.20;;;-1.80;99.90;;;;;;5104902;28;20233;-79